map of YRF home
YRF - Airport
Location
City:  Cartwright, Newfoundland and Labrador, Canada
Name:Cartwright Airport
ICAO:CYCA
IATA:YRF

Details
Type:Airport (Airfield)
Use:Public/Civil
Latitude:5340'57"N (53.682500)
Longitude:5702'31"W (-57.041943)
Elevation:42 ft (13 m)
Variation:20.67W (WMM2015v2 magnetic declination)
0.25 annual change
Runways:1
Longest:3937 ft (1200 m)

Time
Time Zone:UTC-3:30 (DST-2:30)
Local Time:

Weather
METAR:CYCA 041400Z AUTO 21006KT 9SM OVC095 M14/M19 A2986 RMK SLP116
TAF:CYCA 041341Z 0414/0502 22008KT P6SM BKN180
FM041600 22012KT P6SM BKN060 OVC180
TEMPO 0416/0423 5SM -SN
BECMG 0420/0422 24007KT
FM042300 VRB03KT P6SM BKN020
RMK FCST BASED ON AUTO OBS. NXT FCST BY 042000Z

Related Locations
Nearby:
Farthest:YWKS: 11451 mi / 18428 km
Wilkins Runway (Casey), Upper Peterson Glacier, AQ

Find:

   beyond  
but within

Other Information
Maps:
NOTAMs:
Links:
Sources:

  
  • flag of Canada
  • flag of Newfoundland and Labrador
  

Sectional Chart

Flight Planning
at skyvector.com

Satellite Image

Google Maps Satellite view

 

Copyright © 2004-2019 Karl L. Swartz. All rights reserved.
The Great Circle Mapper name and logo are trademarks of the Great Circle Mapper.
All other trademarks mentioned herein belong to their respective owners.
Please see credits for attibutions and further copyright information.

  Follow gcmap on Facebook Follow gcmap on Twitter GCmap on LinkedIn

hCard Microformat

Geo Microformat